createdAt,value
2018-09-05T00:00:26.646Z,63.35
2018-09-05T00:02:55.751Z,62.33
2018-09-05T00:05:24.837Z,62.87
2018-09-05T00:07:53.437Z,63.16
2018-09-05T00:10:22.820Z,63.63
2018-09-05T00:12:51.618Z,64.65
2018-09-05T00:15:20.804Z,65.14
2018-09-05T00:17:49.704Z,66.28
2018-09-05T00:20:18.484Z,67.67
2018-09-05T00:22:47.221Z,67.99
2018-09-05T00:25:15.991Z,68.58
2018-09-05T00:27:44.926Z,68.81
2018-09-05T00:30:13.649Z,70.25
2018-09-05T00:32:42.823Z,70.23
2018-09-05T00:35:11.472Z,69.99
2018-09-05T00:37:40.059Z,69.52
2018-09-05T00:40:09.021Z,69.56
2018-09-05T00:42:37.670Z,69.97
2018-09-05T00:45:06.769Z,69.94
2018-09-05T00:47:35.783Z,69.38
2018-09-05T00:50:04.495Z,70.14
2018-09-05T00:52:33.169Z,69.84
2018-09-05T00:55:02.411Z,70.33
2018-09-05T00:57:31.348Z,71.04
2018-09-05T01:00:00.409Z,70.68
2018-09-05T01:02:29.282Z,70.68
2018-09-05T01:04:58.446Z,71.06
2018-09-05T01:07:28.626Z,70.49
2018-09-05T01:09:57.763Z,70.54
2018-09-05T01:12:26.655Z,71.43
2018-09-05T01:14:56.226Z,71.42
2018-09-05T01:17:24.891Z,71.42
2018-09-05T01:19:53.567Z,70.38
2018-09-05T01:22:22.509Z,70.74
2018-09-05T01:24:51.506Z,70.28
2018-09-05T01:27:20.290Z,71.12
2018-09-05T01:29:49.409Z,70.14
2018-09-05T01:32:18.490Z,70.20
2018-09-05T01:34:47.327Z,69.95
2018-09-05T01:37:16.462Z,69.59
2018-09-05T01:39:45.454Z,69.21
2018-09-05T01:42:14.341Z,69.27
2018-09-05T01:44:43.383Z,69.60
2018-09-05T01:47:12.288Z,68.03
2018-09-05T01:49:41.046Z,69.16
2018-09-05T01:52:10.056Z,68.04
2018-09-05T01:54:38.931Z,69.69
2018-09-05T01:57:07.829Z,69.35
2018-09-05T01:59:36.972Z,68.89
2018-09-05T02:02:06.005Z,69.25
2018-09-05T02:04:34.915Z,69.02
2018-09-05T02:07:04.220Z,68.92
2018-09-05T02:09:33.308Z,68.92
2018-09-05T02:12:02.035Z,68.38
2018-09-05T02:14:31.491Z,66.58
2018-09-05T02:17:00.199Z,65.74
2018-09-05T02:19:28.847Z,66.25
2018-09-05T02:21:58.190Z,67.17
2018-09-05T02:24:26.998Z,65.97
2018-09-05T02:26:56.065Z,66.96
2018-09-05T02:29:24.978Z,68.82
2018-09-05T02:31:54.058Z,69.56
2018-09-05T02:34:23.342Z,68.75
2018-09-05T02:36:52.686Z,69.61
2018-09-05T02:39:21.534Z,69.43
2018-09-05T02:41:50.719Z,69.38
2018-09-05T02:44:20.218Z,69.27
2018-09-05T02:46:49.131Z,70.35
2018-09-05T02:49:17.974Z,69.78
2018-09-05T02:51:47.342Z,70.55
2018-09-05T02:54:16.467Z,70.66
2018-09-05T02:56:45.735Z,70.44
2018-09-05T02:59:14.942Z,69.99
2018-09-05T03:01:43.887Z,70.14
2018-09-05T03:04:12.803Z,71.21
2018-09-05T03:06:42.034Z,71.34
2018-09-05T03:09:11.142Z,71.83
2018-09-05T03:11:40.227Z,72.12
2018-09-05T03:14:09.516Z,72.33
2018-09-05T03:16:38.341Z,71.73
2018-09-05T03:19:07.400Z,72.28
2018-09-05T03:21:36.339Z,72.07
2018-09-05T03:24:05.388Z,71.86
2018-09-05T03:26:34.146Z,72.57
2018-09-05T03:29:03.487Z,71.92
2018-09-05T03:31:32.675Z,71.48
2018-09-05T03:34:01.514Z,70.88
2018-09-05T03:36:30.666Z,71.00
2018-09-05T03:38:59.770Z,70.83
2018-09-05T03:41:28.959Z,70.55
2018-09-05T03:43:58.373Z,70.36
2018-09-05T03:46:27.257Z,70.34
2018-09-05T03:48:56.005Z,69.65
2018-09-05T03:51:25.080Z,69.19
2018-09-05T03:53:53.818Z,69.97
2018-09-05T03:56:22.816Z,70.47
2018-09-05T03:58:52.117Z,70.13
2018-09-05T04:01:21.107Z,70.25
2018-09-05T04:03:50.146Z,71.68
2018-09-05T04:06:22.214Z,71.32
2018-09-05T04:08:52.599Z,70.98
2018-09-05T04:11:21.646Z,70.96
2018-09-05T04:13:51.213Z,70.93
2018-09-05T04:16:20.282Z,72.93
2018-09-05T04:18:49.075Z,73.36
2018-09-05T04:21:18.112Z,72.62
2018-09-05T04:23:47.913Z,71.76
2018-09-05T04:26:17.999Z,71.35
2018-09-05T04:28:47.047Z,70.61
2018-09-05T04:31:16.498Z,71.03
2018-09-05T04:33:45.615Z,71.21
2018-09-05T04:36:15.953Z,70.76
2018-09-05T04:38:44.920Z,70.81
2018-09-05T04:41:13.920Z,71.15
2018-09-05T04:43:43.142Z,71.66
2018-09-05T04:46:12.159Z,70.63
2018-09-05T04:48:41.006Z,71.25
2018-09-05T04:51:10.067Z,71.08
2018-09-05T04:53:38.901Z,71.15
2018-09-05T04:56:08.057Z,71.42
2018-09-05T04:58:37.419Z,72.20
2018-09-05T05:01:06.471Z,72.79
2018-09-05T05:03:35.069Z,72.18
2018-09-05T05:06:04.695Z,72.58
2018-09-05T05:08:33.237Z,72.80
2018-09-05T05:11:02.170Z,73.19
2018-09-05T05:13:31.472Z,72.32
2018-09-05T05:16:00.751Z,73.20
2018-09-05T05:18:29.538Z,74.84
2018-09-05T05:20:58.299Z,75.73
2018-09-05T05:23:27.096Z,75.84
2018-09-05T05:25:55.936Z,75.69
2018-09-05T05:28:25.290Z,75.97
2018-09-05T05:30:54.106Z,75.33
2018-09-05T05:33:23.166Z,75.61
2018-09-05T05:35:52.315Z,75.06
2018-09-05T05:38:21.039Z,74.70
2018-09-05T05:40:49.988Z,74.46
2018-09-05T05:43:19.296Z,75.03
2018-09-05T05:45:48.281Z,74.27
2018-09-05T05:48:16.994Z,75.07
2018-09-05T05:50:45.997Z,74.11
2018-09-05T05:53:14.852Z,74.09
2018-09-05T05:55:43.918Z,73.42
2018-09-05T05:58:13.062Z,72.48
2018-09-05T06:00:41.872Z,72.67
2018-09-05T06:03:10.736Z,72.13
2018-09-05T06:05:39.938Z,72.45
2018-09-05T06:08:08.704Z,73.22
2018-09-05T06:10:37.610Z,73.26
2018-09-05T06:13:06.406Z,72.39
2018-09-05T06:15:35.293Z,72.66
2018-09-05T06:18:04.197Z,72.07
2018-09-05T06:20:33.218Z,71.11
2018-09-05T06:23:01.855Z,70.73
2018-09-05T06:25:30.959Z,70.22
2018-09-05T06:28:00.422Z,70.91
2018-09-05T06:30:29.519Z,71.05
2018-09-05T06:32:58.467Z,69.40
2018-09-05T06:35:27.970Z,69.97
2018-09-05T06:37:57.187Z,68.61
2018-09-05T06:40:26.048Z,68.39
2018-09-05T06:42:54.914Z,69.04
2018-09-05T06:45:23.629Z,67.67
2018-09-05T06:47:52.335Z,67.50
2018-09-05T06:50:21.386Z,68.28
2018-09-05T06:52:50.219Z,67.56
2018-09-05T06:55:19.194Z,67.01
2018-09-05T06:57:48.210Z,66.99
2018-09-05T07:00:18.179Z,66.59
2018-09-05T07:02:47.578Z,66.42
2018-09-05T07:05:17.293Z,66.40
2018-09-05T07:07:46.184Z,67.15
2018-09-05T07:10:15.117Z,66.48
2018-09-05T07:12:44.758Z,66.18
2018-09-05T07:15:13.473Z,66.23
2018-09-05T07:17:42.332Z,65.85
2018-09-05T07:20:11.339Z,65.48
2018-09-05T07:22:39.983Z,67.01
2018-09-05T07:25:09.736Z,64.91
2018-09-05T07:27:39.161Z,64.78
2018-09-05T07:30:08.168Z,65.21
2018-09-05T07:32:37.011Z,64.72
2018-09-05T07:35:06.198Z,64.64
2018-09-05T07:37:35.119Z,63.97
2018-09-05T07:40:03.995Z,66.26
2018-09-05T07:42:32.958Z,64.46
2018-09-05T07:45:01.905Z,64.80
2018-09-05T07:47:30.812Z,62.84
2018-09-05T07:49:59.521Z,63.72
2018-09-05T07:52:28.311Z,63.53
2018-09-05T07:54:57.126Z,62.30
2018-09-05T07:57:26.140Z,62.23
2018-09-05T07:59:55.135Z,62.27
2018-09-05T08:02:24.024Z,60.76
2018-09-05T08:04:53.444Z,60.11
2018-09-05T08:07:22.366Z,60.00
2018-09-05T08:09:51.430Z,58.94
2018-09-05T08:12:20.860Z,60.25
2018-09-05T08:14:50.100Z,59.40
2018-09-05T08:17:19.503Z,56.69
2018-09-05T08:19:48.576Z,56.12
2018-09-05T08:22:17.510Z,58.00
2018-09-05T08:24:46.426Z,57.01
2018-09-05T08:27:15.712Z,56.32
2018-09-05T08:29:44.518Z,56.19
2018-09-05T08:32:13.451Z,56.58
2018-09-05T08:34:42.596Z,54.79
2018-09-05T08:37:11.965Z,54.57
2018-09-05T08:39:40.584Z,55.67
2018-09-05T08:42:09.647Z,55.93
2018-09-05T08:44:38.627Z,54.52
2018-09-05T08:47:07.378Z,55.74
2018-09-05T08:49:36.418Z,56.06
2018-09-05T08:52:05.299Z,54.95
2018-09-05T08:54:33.940Z,54.19
2018-09-05T08:57:02.989Z,53.75
2018-09-05T08:59:32.361Z,54.92
2018-09-05T09:02:01.085Z,54.11
2018-09-05T09:04:30.211Z,54.02
2018-09-05T09:06:59.007Z,53.27
2018-09-05T09:09:27.847Z,52.77
2018-09-05T09:11:56.966Z,52.08
2018-09-05T09:14:25.835Z,51.19
2018-09-05T09:16:54.637Z,51.79
2018-09-05T09:19:23.770Z,51.51
2018-09-05T09:21:52.927Z,52.08
2018-09-05T09:24:21.881Z,51.30
2018-09-05T09:26:51.263Z,50.88
2018-09-05T09:29:20.335Z,50.51
2018-09-05T09:31:49.102Z,50.11
2018-09-05T09:34:18.316Z,50.99
2018-09-05T09:36:47.482Z,49.33
2018-09-05T09:39:16.452Z,49.12
2018-09-05T09:41:45.603Z,49.94
2018-09-05T09:44:14.587Z,50.25
2018-09-05T09:46:43.291Z,51.14
2018-09-05T09:49:12.001Z,50.28
2018-09-05T09:51:40.815Z,50.25
2018-09-05T09:54:09.914Z,50.57
2018-09-05T09:56:39.548Z,49.19
2018-09-05T09:59:08.478Z,49.00
2018-09-05T10:01:42.782Z,49.30
2018-09-05T10:04:16.870Z,49.83
2018-09-05T10:06:55.384Z,47.73
2018-09-05T10:09:29.383Z,46.76
2018-09-05T10:12:03.947Z,46.80
2018-09-05T10:14:33.930Z,47.23
2018-09-05T10:17:08.200Z,48.79
2018-09-05T10:19:36.783Z,47.83
2018-09-05T10:22:05.710Z,48.08
2018-09-05T10:24:34.573Z,47.15
2018-09-05T10:27:03.642Z,47.97
2018-09-05T10:29:32.410Z,47.26
2018-09-05T10:32:01.455Z,48.17
2018-09-05T10:34:30.414Z,47.05
2018-09-05T10:37:00.484Z,45.12
2018-09-05T10:39:29.553Z,44.84
2018-09-05T10:41:58.556Z,43.91
2018-09-05T10:44:27.835Z,43.61
2018-09-05T10:46:56.759Z,45.27
2018-09-05T10:49:25.503Z,45.49
2018-09-05T10:51:57.003Z,44.25
2018-09-05T10:54:25.958Z,44.03
2018-09-05T10:56:54.739Z,41.71
2018-09-05T10:59:23.774Z,41.41
2018-09-05T11:01:52.831Z,41.29
2018-09-05T11:04:21.679Z,40.84
2018-09-05T11:06:50.896Z,40.45
2018-09-05T11:09:19.504Z,40.82
2018-09-05T11:11:48.170Z,40.78
2018-09-05T11:14:17.309Z,41.79
2018-09-05T11:16:46.282Z,43.25
2018-09-05T11:19:14.898Z,42.41
2018-09-05T11:21:43.933Z,42.67
2018-09-05T11:24:12.767Z,41.04
2018-09-05T11:26:41.896Z,40.33
2018-09-05T11:29:11.367Z,39.87
2018-09-05T11:31:40.354Z,39.89
2018-09-05T11:34:09.252Z,38.54
2018-09-05T11:36:38.518Z,37.91
2018-09-05T11:39:10.296Z,37.45
2018-09-05T11:41:39.939Z,37.28
2018-09-05T11:44:09.212Z,36.61
2018-09-05T11:46:38.776Z,36.08
2018-09-05T11:49:08.567Z,36.40
2018-09-05T11:51:37.714Z,36.78
2018-09-05T11:54:07.141Z,37.01
2018-09-05T11:56:36.446Z,36.87
2018-09-05T11:59:05.531Z,36.53
2018-09-05T12:01:34.526Z,36.39
2018-09-05T12:04:03.638Z,34.72
2018-09-05T12:06:32.310Z,34.22
2018-09-05T12:09:01.146Z,35.11
2018-09-05T12:11:30.070Z,33.09
2018-09-05T12:13:59.160Z,32.58
2018-09-05T12:16:27.887Z,31.40
2018-09-05T12:18:56.535Z,33.49
2018-09-05T12:21:25.407Z,35.29
2018-09-05T12:23:54.142Z,36.47
2018-09-05T12:26:22.975Z,35.49
2018-09-05T12:28:52.071Z,34.15
2018-09-05T12:31:21.163Z,35.14
2018-09-05T12:33:50.446Z,33.95
2018-09-05T12:36:19.118Z,32.55
2018-09-05T12:38:47.788Z,32.30
2018-09-05T12:41:16.722Z,32.50
2018-09-05T12:43:45.388Z,32.55
2018-09-05T12:46:13.987Z,33.84
2018-09-05T12:48:42.942Z,34.45
2018-09-05T12:51:11.810Z,34.91
2018-09-05T12:53:40.699Z,33.70
2018-09-05T12:56:09.555Z,33.77
2018-09-05T12:58:38.524Z,33.75
2018-09-05T13:01:07.429Z,34.38
2018-09-05T13:03:37.030Z,34.62
2018-09-05T13:06:06.210Z,34.09
2018-09-05T13:08:35.001Z,35.62
2018-09-05T13:11:04.032Z,32.54
2018-09-05T13:13:33.313Z,33.35
2018-09-05T13:16:02.240Z,31.44
2018-09-05T13:18:31.215Z,32.72
2018-09-05T13:21:00.113Z,33.36
2018-09-05T13:23:29.451Z,34.08
2018-09-05T13:25:58.698Z,32.81
2018-09-05T13:28:27.788Z,31.68
2018-09-05T13:30:56.883Z,32.21
2018-09-05T13:33:25.762Z,31.19
2018-09-05T13:35:54.594Z,31.87
2018-09-05T13:38:23.864Z,32.26
2018-09-05T13:40:52.574Z,32.35
2018-09-05T13:43:24.364Z,34.06
2018-09-05T13:45:53.370Z,34.78
2018-09-05T13:48:22.101Z,35.08
2018-09-05T13:50:51.071Z,37.00
2018-09-05T13:53:20.302Z,38.17
2018-09-05T13:55:49.323Z,39.69
2018-09-05T13:58:18.449Z,40.22
2018-09-05T14:00:47.629Z,40.24
2018-09-05T14:03:16.410Z,40.37
2018-09-05T14:05:45.511Z,41.36
2018-09-05T14:08:14.778Z,42.49
2018-09-05T14:10:43.559Z,40.96
2018-09-05T14:13:12.357Z,41.46
2018-09-05T14:15:41.767Z,42.49
2018-09-05T14:18:10.526Z,43.47
2018-09-05T14:20:39.472Z,43.40
2018-09-05T14:23:08.659Z,44.40
2018-09-05T14:25:37.622Z,44.48
2018-09-05T14:28:07.642Z,45.92
2018-09-05T14:30:36.651Z,46.80
2018-09-05T14:33:05.798Z,45.23
2018-09-05T14:35:34.827Z,45.00
2018-09-05T14:38:04.257Z,45.86
2018-09-05T14:40:33.336Z,46.93
2018-09-05T14:43:02.036Z,47.33
2018-09-05T14:45:30.702Z,47.47
2018-09-05T14:47:59.448Z,48.98
2018-09-05T14:50:28.528Z,49.04
2018-09-05T14:52:57.626Z,49.92
2018-09-05T14:55:26.472Z,49.60
2018-09-05T14:57:55.210Z,49.27
2018-09-05T15:00:24.867Z,48.97
2018-09-05T15:02:53.854Z,48.89
2018-09-05T15:05:22.844Z,47.58
2018-09-05T15:07:52.514Z,47.14
2018-09-05T15:10:21.463Z,47.02
2018-09-05T15:12:50.195Z,46.53
2018-09-05T15:15:19.315Z,45.15
2018-09-05T15:17:48.084Z,46.14
2018-09-05T15:20:16.983Z,46.39
2018-09-05T15:22:46.548Z,47.86
2018-09-05T15:25:15.427Z,47.50
2018-09-05T15:27:44.209Z,47.99
2018-09-05T15:30:13.731Z,46.81
2018-09-05T15:32:42.696Z,46.98
2018-09-05T15:35:11.630Z,48.05
2018-09-05T15:37:40.742Z,49.69
2018-09-05T15:40:10.005Z,49.21
2018-09-05T15:42:38.784Z,49.67
2018-09-05T15:45:07.516Z,49.58
2018-09-05T15:47:36.186Z,50.27
2018-09-05T15:50:05.310Z,50.75
2018-09-05T15:52:33.990Z,50.76
2018-09-05T15:55:03.155Z,50.03
2018-09-05T15:57:32.341Z,50.31
2018-09-05T16:00:01.570Z,50.54
2018-09-05T16:02:30.182Z,50.81
2018-09-05T16:04:59.422Z,50.94
2018-09-05T16:07:28.338Z,50.69
2018-09-05T16:09:57.314Z,51.50
2018-09-05T16:12:25.950Z,52.28
2018-09-05T16:14:54.593Z,51.73
2018-09-05T16:17:23.359Z,52.43
2018-09-05T16:19:52.498Z,51.91
2018-09-05T16:22:21.695Z,52.23
2018-09-05T16:24:50.772Z,52.86
2018-09-05T16:27:19.972Z,52.92
2018-09-05T16:29:48.955Z,52.26
2018-09-05T16:32:17.864Z,52.73
2018-09-05T16:34:46.898Z,53.37
2018-09-05T16:37:16.447Z,53.43
2018-09-05T16:39:45.448Z,53.53
2018-09-05T16:42:18.006Z,53.81
2018-09-05T16:44:46.851Z,54.31
2018-09-05T16:47:15.819Z,54.71
2018-09-05T16:49:45.231Z,55.02
2018-09-05T16:52:14.386Z,55.26
2018-09-05T16:54:43.207Z,55.60
2018-09-05T16:57:12.424Z,55.74
2018-09-05T16:59:41.239Z,56.09
2018-09-05T17:02:10.219Z,56.32
2018-09-05T17:04:39.534Z,56.24
2018-09-05T17:07:08.587Z,56.84
2018-09-05T17:09:38.061Z,56.88
2018-09-05T17:12:07.325Z,56.94
2018-09-05T17:14:36.215Z,57.11
2018-09-05T17:17:08.847Z,57.12
2018-09-05T17:19:37.796Z,57.48
2018-09-05T17:22:06.879Z,57.77
2018-09-05T17:24:37.958Z,57.87
2018-09-05T17:27:07.082Z,57.04
2018-09-05T17:29:36.179Z,57.58
2018-09-05T17:32:05.804Z,57.77
2018-09-05T17:34:34.828Z,57.77
2018-09-05T17:37:03.591Z,58.37
2018-09-05T17:39:32.727Z,58.37
2018-09-05T17:42:01.521Z,57.95
2018-09-05T17:44:30.177Z,58.05
2018-09-05T17:46:59.271Z,57.81
2018-09-05T17:49:28.041Z,58.34
2018-09-05T17:51:57.143Z,58.60
2018-09-05T17:54:26.394Z,57.85
2018-09-05T17:56:55.768Z,58.36
2018-09-05T17:59:24.961Z,57.88
2018-09-05T18:01:54.011Z,56.60
2018-09-05T18:04:23.671Z,56.29
2018-09-05T18:06:52.758Z,55.61
2018-09-05T18:09:21.842Z,55.67
2018-09-05T18:11:50.806Z,55.83
2018-09-05T18:14:19.491Z,56.13
2018-09-05T18:16:48.507Z,56.07
2018-09-05T18:19:17.590Z,56.31
2018-09-05T18:21:46.600Z,55.72
2018-09-05T18:24:15.564Z,53.69
2018-09-05T18:26:44.710Z,53.92
2018-09-05T18:29:13.624Z,54.39
2018-09-05T18:31:42.751Z,55.48
2018-09-05T18:34:11.590Z,55.34
2018-09-05T18:36:40.508Z,55.82
2018-09-05T18:39:09.868Z,56.27
2018-09-05T18:41:39.290Z,57.18
2018-09-05T18:44:08.182Z,57.90
2018-09-05T18:46:37.349Z,58.36
2018-09-05T18:49:06.804Z,59.19
2018-09-05T18:51:35.585Z,59.69
2018-09-05T18:54:04.494Z,60.54
2018-09-05T18:56:33.664Z,60.50
2018-09-05T18:59:02.999Z,61.84
2018-09-05T19:01:31.939Z,62.15
2018-09-05T19:04:01.386Z,62.32
2018-09-05T19:06:30.345Z,62.69
2018-09-05T19:08:58.937Z,63.15
2018-09-05T19:11:27.922Z,63.51
2018-09-05T19:13:56.604Z,63.43
2018-09-05T19:16:25.487Z,63.93
2018-09-05T19:18:54.973Z,64.82
2018-09-05T19:21:23.943Z,65.10
2018-09-05T19:23:53.051Z,64.62
2018-09-05T19:26:22.454Z,65.12
2018-09-05T19:28:51.354Z,65.80
2018-09-05T19:31:20.055Z,65.43
2018-09-05T19:33:49.373Z,65.39
2018-09-05T19:36:18.032Z,65.38
2018-09-05T19:38:46.866Z,65.34
2018-09-05T19:41:15.941Z,66.03
2018-09-05T19:43:44.739Z,66.48
2018-09-05T19:46:13.734Z,66.33
2018-09-05T19:48:42.834Z,66.63
2018-09-05T19:51:11.906Z,66.06
2018-09-05T19:53:40.814Z,66.42
2018-09-05T19:56:09.936Z,66.08
2018-09-05T19:58:39.305Z,66.23
2018-09-05T20:01:08.142Z,66.32
2018-09-05T20:03:37.506Z,66.20
2018-09-05T20:06:06.244Z,66.13
2018-09-05T20:08:35.110Z,66.52
2018-09-05T20:11:04.258Z,66.59
2018-09-05T20:13:33.329Z,66.52
2018-09-05T20:16:02.143Z,66.56
2018-09-05T20:18:31.364Z,66.57
2018-09-05T20:21:00.379Z,66.32
2018-09-05T20:23:29.896Z,66.98
2018-09-05T20:25:59.119Z,66.57
2018-09-05T20:28:27.861Z,66.53
2018-09-05T20:30:56.938Z,66.21
2018-09-05T20:33:26.001Z,66.13
2018-09-05T20:35:54.947Z,66.07
2018-09-05T20:38:23.669Z,65.86
2018-09-05T20:40:52.658Z,65.87
2018-09-05T20:43:21.512Z,66.01
2018-09-05T20:45:50.525Z,65.45
2018-09-05T20:48:19.512Z,65.48
2018-09-05T20:50:48.339Z,65.38
2018-09-05T20:53:17.238Z,65.62
2018-09-05T20:55:46.686Z,65.18
2018-09-05T20:58:15.579Z,65.16
2018-09-05T21:00:44.518Z,65.00
2018-09-05T21:03:14.001Z,64.65
2018-09-05T21:05:42.985Z,64.33
2018-09-05T21:08:12.006Z,64.53
2018-09-05T21:10:40.994Z,64.08
2018-09-05T21:13:09.874Z,64.53
2018-09-05T21:15:40.072Z,64.07
2018-09-05T21:18:09.558Z,64.06
2018-09-05T21:20:38.573Z,64.08
2018-09-05T21:23:07.458Z,63.46
2018-09-05T21:25:36.367Z,63.35
2018-09-05T21:28:05.143Z,62.81
2018-09-05T21:30:34.527Z,62.90
2018-09-05T21:33:10.423Z,62.91
2018-09-05T21:35:39.192Z,62.98
2018-09-05T21:38:07.879Z,63.15
2018-09-05T21:40:36.869Z,62.66
2018-09-05T21:43:05.695Z,62.75
2018-09-05T21:45:34.461Z,62.64
2018-09-05T21:48:03.646Z,63.40
2018-09-05T21:50:32.450Z,63.60
2018-09-05T21:53:01.455Z,63.75
2018-09-05T21:55:30.532Z,64.50
2018-09-05T21:57:59.427Z,64.21
2018-09-05T22:00:28.540Z,63.82
2018-09-05T22:02:57.456Z,64.04
2018-09-05T22:05:26.686Z,64.09
2018-09-05T22:07:55.295Z,64.29
2018-09-05T22:10:24.055Z,64.57
2018-09-05T22:12:52.957Z,64.48
2018-09-05T22:15:21.767Z,64.93
2018-09-05T22:17:50.421Z,64.89
2018-09-05T22:20:19.675Z,64.93
2018-09-05T22:22:48.635Z,65.03
2018-09-05T22:25:17.357Z,64.46
2018-09-05T22:27:46.601Z,64.92
2018-09-05T22:30:15.332Z,64.72
2018-09-05T22:32:44.424Z,65.40
2018-09-05T22:35:13.539Z,65.70
2018-09-05T22:37:42.210Z,65.58
2018-09-05T22:40:10.886Z,65.36
2018-09-05T22:42:49.960Z,64.93
2018-09-05T22:45:29.750Z,65.06
2018-09-05T22:50:22.638Z,65.27
2018-09-05T22:55:16.383Z,65.94
2018-09-05T23:00:02.446Z,66.72
2018-09-05T23:04:46.897Z,67.01
2018-09-05T23:07:26.578Z,67.81
2018-09-05T23:10:06.199Z,66.75
2018-09-05T23:12:46.215Z,67.10
2018-09-05T23:15:26.090Z,67.38
2018-09-05T23:20:09.269Z,67.19
2018-09-05T23:22:49.234Z,67.96
2018-09-05T23:25:18.392Z,67.46
2018-09-05T23:27:47.351Z,67.57
2018-09-05T23:30:16.164Z,67.65
2018-09-05T23:32:45.193Z,67.71
2018-09-05T23:35:13.963Z,67.40
2018-09-05T23:37:42.701Z,67.44
2018-09-05T23:40:11.720Z,67.64
2018-09-05T23:42:40.528Z,67.69
2018-09-05T23:45:09.246Z,67.36
2018-09-05T23:47:38.304Z,67.99
2018-09-05T23:50:07.681Z,68.53
2018-09-05T23:52:36.511Z,68.22
2018-09-05T23:55:06.242Z,68.59
2018-09-05T23:57:35.512Z,68.37
